createdAt,value
2023-03-06T00:37:12.898Z,94232.00
2023-03-06T00:38:12.900Z,94232.00
2023-03-06T00:39:12.939Z,94230.00
2023-03-06T00:40:12.986Z,94228.00
2023-03-06T00:41:12.988Z,94228.00
2023-03-06T00:42:13.046Z,94228.00
2023-03-06T01:00:13.565Z,94208.00
2023-03-06T01:01:13.606Z,94208.00
2023-03-06T01:02:13.621Z,94206.00
2023-03-06T01:03:13.609Z,94204.00
2023-03-06T01:04:13.658Z,94202.00
2023-03-06T01:05:13.666Z,94200.00
2023-03-06T01:06:13.694Z,94200.00
2023-03-06T01:07:13.734Z,94197.00
2023-03-06T01:08:13.717Z,94193.00
2023-03-06T01:09:13.761Z,94195.00
2023-03-06T01:10:13.775Z,94195.00
2023-03-06T01:11:13.782Z,94193.00
2023-03-06T01:12:13.791Z,94193.00
2023-03-06T01:13:13.797Z,94189.00
2023-03-06T01:14:13.796Z,94189.00
2023-03-06T01:15:13.809Z,94187.00
2023-03-06T01:16:13.851Z,94187.00
2023-03-06T01:17:14.354Z,94183.00
2023-03-06T01:18:13.771Z,94183.00
2023-03-06T01:19:13.780Z,94181.00
2023-03-06T01:20:13.781Z,94179.00
2023-03-06T01:21:13.804Z,94179.00
2023-03-06T01:22:13.806Z,94177.00
2023-03-06T01:23:13.818Z,94175.00
2023-03-06T01:24:13.801Z,94173.00
2023-03-06T01:25:13.824Z,94175.00
2023-03-06T01:26:13.811Z,94173.00
2023-03-06T01:27:13.835Z,94173.00
2023-03-06T01:28:13.847Z,94171.00
2023-03-06T01:29:13.905Z,94171.00
2023-03-06T01:30:13.934Z,94169.00
2023-03-06T01:32:14.035Z,94165.00
2023-03-06T01:33:14.028Z,94169.00
2023-03-06T01:35:14.090Z,94161.00
2023-03-06T01:40:14.262Z,94158.00
2023-03-06T01:41:14.341Z,94155.00
2023-03-06T01:42:14.339Z,94155.00
2023-03-06T01:43:14.450Z,94155.00
2023-03-06T01:44:14.382Z,94153.00
2023-03-06T01:45:14.574Z,94155.00
2023-03-06T01:46:14.427Z,94153.00
2023-03-06T01:47:14.443Z,94152.00
2023-03-06T01:48:14.479Z,94152.00
2023-03-06T01:49:14.490Z,94150.00
2023-03-06T01:50:14.553Z,94150.00
2023-03-06T01:51:14.599Z,94150.00
2023-03-06T01:52:14.684Z,94138.00
2023-03-06T01:53:14.658Z,94136.00
2023-03-06T01:54:14.691Z,94132.00
2023-03-06T01:55:14.713Z,94132.00
2023-03-06T01:56:14.718Z,94132.00
2023-03-06T01:57:14.778Z,94130.00
2023-03-06T01:58:14.813Z,94132.00
2023-03-06T01:59:14.847Z,94126.00
2023-03-06T02:00:14.899Z,94126.00
2023-03-06T02:01:15.049Z,94126.00
2023-03-06T02:02:14.986Z,94124.00
2023-03-06T02:03:14.977Z,94122.00
2023-03-06T02:04:15.006Z,94120.00
2023-03-06T02:05:15.064Z,94118.00
2023-03-06T02:08:15.149Z,94115.00
2023-03-06T02:57:16.743Z,94065.00
2023-03-06T03:04:16.915Z,94056.00
2023-03-06T03:05:16.908Z,94054.00
2023-03-06T03:06:16.937Z,94054.00
2023-03-06T03:07:16.998Z,94058.00
2023-03-06T03:08:17.030Z,94054.00
2023-03-06T03:27:17.857Z,94034.00
2023-03-06T03:28:17.926Z,94032.00
2023-03-06T03:29:17.967Z,94032.00
2023-03-06T03:30:18.048Z,94030.00
2023-03-06T03:31:18.122Z,94036.00
2023-03-06T03:32:18.206Z,94032.00
2023-03-06T03:33:18.193Z,94032.00
2023-03-06T03:34:18.271Z,94032.00
2023-03-06T03:35:18.313Z,94030.00
2023-03-06T03:36:18.322Z,94026.00
2023-03-06T03:37:18.350Z,94026.00
2023-03-06T03:38:18.429Z,94024.00
2023-03-06T03:39:18.438Z,94020.00
2023-03-06T03:40:18.456Z,94022.00
2023-03-06T03:41:18.528Z,94018.00
2023-03-06T04:24:20.217Z,93956.00
2023-03-06T04:25:20.249Z,93956.00
2023-03-06T04:26:20.285Z,93958.00
2023-03-06T04:27:20.337Z,93960.00
2023-03-06T04:28:20.313Z,93958.00
2023-03-06T04:29:20.366Z,93958.00
2023-03-06T04:30:20.436Z,93958.00
2023-03-06T04:31:20.534Z,93958.00
2023-03-06T04:32:21.649Z,93956.00
2023-03-06T04:33:20.561Z,93954.00
2023-03-06T04:34:20.608Z,93954.00
2023-03-06T04:35:20.707Z,93952.00
2023-03-06T04:36:20.734Z,93952.00
2023-03-06T04:37:20.771Z,93948.00
2023-03-06T04:38:20.816Z,93946.00
2023-03-06T04:39:20.862Z,93946.00
2023-03-06T04:40:20.902Z,93946.00
2023-03-06T04:41:20.915Z,93944.00
2023-03-06T04:42:20.952Z,93944.00
2023-03-06T04:43:20.982Z,93946.00
2023-03-06T04:44:20.984Z,93944.00
2023-03-06T04:45:21.150Z,93948.00
2023-03-06T04:46:21.046Z,93946.00
2023-03-06T04:47:21.083Z,93946.00
2023-03-06T04:48:21.102Z,93942.00
2023-03-06T04:49:21.116Z,93942.00
2023-03-06T04:50:21.128Z,93946.00
2023-03-06T04:51:21.223Z,93944.00
2023-03-06T04:52:21.194Z,93944.00
2023-03-06T04:53:21.233Z,93942.00
2023-03-06T04:54:21.274Z,93942.00
2023-03-06T05:04:21.613Z,93938.00
2023-03-06T05:05:21.646Z,93936.00
2023-03-06T05:06:21.691Z,93934.00
2023-03-06T05:07:21.736Z,93932.00
2023-03-06T05:08:21.723Z,93932.00
2023-03-06T05:09:21.785Z,93932.00
2023-03-06T05:16:22.062Z,93930.00
2023-03-06T05:17:22.079Z,93927.00
2023-03-06T05:18:22.142Z,93927.00
2023-03-06T05:19:22.170Z,93928.00
2023-03-06T05:20:22.232Z,93928.00
2023-03-06T05:21:22.294Z,93925.00
2023-03-06T05:22:22.346Z,93923.00
2023-03-06T05:23:22.400Z,93923.00
2023-03-06T05:24:22.440Z,93923.00
2023-03-06T06:45:50.740Z,93925.00
2023-03-06T09:22:47.945Z,93940.00
2023-03-06T09:23:47.851Z,93940.00
2023-03-06T09:24:47.868Z,93940.00
2023-03-06T09:25:47.913Z,93940.00
2023-03-06T09:26:49.408Z,93938.00
2023-03-06T09:27:51.442Z,93938.00
2023-03-06T09:28:48.923Z,93936.00
2023-03-06T09:29:48.019Z,93936.00
2023-03-06T09:30:47.994Z,93936.00
2023-03-06T09:31:47.905Z,93938.00
2023-03-06T09:32:47.964Z,93938.00
2023-03-06T09:33:47.866Z,93938.00
2023-03-06T09:34:47.896Z,93936.00
2023-03-06T09:35:47.959Z,93934.00
2023-03-06T09:36:56.872Z,93932.00
2023-03-06T09:37:49.218Z,93936.00
2023-03-06T09:38:48.143Z,93934.00
2023-03-06T09:39:47.880Z,93934.00
2023-03-06T09:40:47.930Z,93934.00
2023-03-06T09:41:47.901Z,93932.00
2023-03-06T09:58:48.813Z,93923.00
2023-03-06T09:59:48.884Z,93927.00
2023-03-06T10:00:48.940Z,93928.00
2023-03-06T10:01:48.933Z,93930.00
2023-03-06T10:02:49.131Z,93927.00
2023-03-06T10:03:49.093Z,93927.00
2023-03-06T10:04:49.137Z,93925.00
2023-03-06T10:05:49.117Z,93923.00
2023-03-06T10:06:49.192Z,93925.00
2023-03-06T10:07:49.108Z,93921.00
2023-03-06T10:08:49.138Z,93911.00
2023-03-06T10:09:49.355Z,93909.00
2023-03-06T10:10:49.205Z,93911.00
2023-03-06T10:11:49.330Z,93911.00
2023-03-06T10:12:49.304Z,93911.00
2023-03-06T10:13:49.459Z,93913.00
2023-03-06T10:14:49.489Z,93919.00
2023-03-06T10:15:49.426Z,93915.00
2023-03-06T10:16:49.482Z,93917.00
2023-03-06T10:17:49.503Z,93911.00
2023-03-06T10:18:50.555Z,93913.00
2023-03-06T10:19:49.574Z,93911.00
2023-03-06T10:20:49.592Z,93913.00
2023-03-06T10:21:49.586Z,93913.00
2023-03-06T10:23:00.740Z,93909.00
2023-03-06T10:23:50.968Z,93907.00
2023-03-06T10:24:49.576Z,93905.00
2023-03-06T10:25:49.562Z,93903.00
2023-03-06T10:26:49.680Z,93899.00
2023-03-06T10:27:49.691Z,93895.00
2023-03-06T10:28:49.579Z,93897.00
2023-03-06T10:30:01.658Z,93899.00
2023-03-06T10:30:50.568Z,93895.00
2023-03-06T10:31:49.773Z,93895.00
2023-03-06T10:32:49.752Z,93899.00
2023-03-06T10:33:49.535Z,93895.00
2023-03-06T10:34:49.508Z,93891.00
2023-03-06T10:35:49.584Z,93893.00
2023-03-06T10:36:49.540Z,93889.00
2023-03-06T10:37:49.508Z,93882.00
2023-03-06T10:38:49.988Z,93878.00
2023-03-06T10:39:49.496Z,93876.00
2023-03-06T10:40:49.519Z,93876.00
2023-03-06T10:41:49.566Z,93872.00
2023-03-06T10:42:56.194Z,93876.00
2023-03-06T10:43:50.631Z,93872.00
2023-03-06T10:44:49.554Z,93876.00
2023-03-06T10:45:49.852Z,93874.00
2023-03-06T10:46:49.573Z,93872.00
2023-03-06T10:47:49.559Z,93868.00
2023-03-06T10:48:49.995Z,93858.00
2023-03-06T10:49:49.591Z,93860.00
2023-03-06T10:50:49.499Z,93858.00
2023-03-06T10:51:49.532Z,93852.00
2023-03-06T10:52:49.587Z,93852.00
2023-03-06T10:53:49.675Z,93850.00
2023-03-06T10:54:49.704Z,93846.00
2023-03-06T10:55:49.782Z,93846.00
2023-03-06T10:56:49.814Z,93846.00
2023-03-06T10:57:49.881Z,93844.00
2023-03-06T10:58:49.926Z,93846.00
2023-03-06T10:59:50.010Z,93840.00
2023-03-06T11:00:50.039Z,93838.00
2023-03-06T11:01:50.096Z,93838.00
2023-03-06T11:02:50.139Z,93835.00
2023-03-06T11:03:50.231Z,93836.00
2023-03-06T11:04:50.307Z,93835.00
2023-03-06T11:05:50.306Z,93833.00
2023-03-06T11:06:50.384Z,93833.00
2023-03-06T11:07:50.425Z,93833.00
2023-03-06T11:08:50.497Z,93827.00
2023-03-06T11:09:50.537Z,93823.00
2023-03-06T11:10:50.577Z,93821.00
2023-03-06T11:11:51.520Z,93815.00
2023-03-06T11:12:50.657Z,93817.00
2023-03-06T11:13:50.701Z,93815.00
2023-03-06T11:14:50.688Z,93817.00
2023-03-06T11:15:50.799Z,93819.00
2023-03-06T11:16:50.699Z,93817.00
2023-03-06T11:17:50.688Z,93815.00
2023-03-06T11:19:51.024Z,93807.00
2023-03-06T11:20:52.846Z,93803.00
2023-03-06T11:21:50.699Z,93797.00
2023-03-06T11:22:50.730Z,93797.00
2023-03-06T11:23:50.738Z,93793.00
2023-03-06T11:24:50.756Z,93793.00
2023-03-06T11:25:50.780Z,93793.00
2023-03-06T11:26:51.282Z,93793.00
2023-03-06T11:27:50.794Z,93793.00
2023-03-06T11:28:50.853Z,93788.00
2023-03-06T11:29:50.892Z,93786.00
2023-03-06T11:30:50.891Z,93784.00
2023-03-06T11:31:50.923Z,93788.00
2023-03-06T11:32:50.981Z,93778.00
2023-03-06T11:33:51.034Z,93782.00
2023-03-06T11:34:51.008Z,93776.00
2023-03-06T11:35:51.079Z,93776.00
2023-03-06T11:36:51.117Z,93776.00
2023-03-06T11:37:51.131Z,93770.00
2023-03-06T11:38:51.122Z,93768.00
2023-03-06T11:39:51.493Z,93766.00
2023-03-06T11:40:51.141Z,93762.00
2023-03-06T11:41:51.179Z,93760.00
2023-03-06T11:42:51.175Z,93754.00
2023-03-06T11:43:51.222Z,93756.00
2023-03-06T11:44:51.530Z,93756.00
2023-03-06T11:45:51.262Z,93754.00
2023-03-06T11:46:51.332Z,93748.00
2023-03-06T11:47:51.350Z,93750.00
2023-03-06T11:48:51.388Z,93744.00
2023-03-06T11:49:51.547Z,93742.00
2023-03-06T11:50:51.484Z,93741.00
2023-03-06T11:51:51.499Z,93741.00
2023-03-06T11:52:51.548Z,93739.00
2023-03-06T11:53:51.587Z,93729.00
2023-03-06T11:54:52.042Z,93729.00
2023-03-06T11:55:51.631Z,93729.00
2023-03-06T11:56:51.650Z,93729.00
2023-03-06T11:57:51.669Z,93727.00
2023-03-06T11:58:51.653Z,93727.00
2023-03-06T11:59:51.694Z,93725.00
2023-03-06T12:00:51.744Z,93715.00
2023-03-06T12:01:51.784Z,93715.00
2023-03-06T12:02:51.762Z,93713.00
2023-03-06T12:03:51.748Z,93711.00
2023-03-06T12:04:52.021Z,93709.00
2023-03-06T12:05:51.733Z,93707.00
2023-03-06T12:06:51.763Z,93715.00
2023-03-06T12:07:51.799Z,93707.00
2023-03-06T12:08:51.774Z,93711.00
2023-03-06T12:09:51.811Z,93709.00
2023-03-06T12:10:52.309Z,93705.00
2023-03-06T12:11:51.801Z,93707.00
2023-03-06T12:12:51.814Z,93705.00
2023-03-06T12:14:52.008Z,93701.00
2023-03-06T12:15:51.821Z,93697.00
2023-03-06T12:16:51.866Z,93699.00
2023-03-06T12:17:51.838Z,93697.00
2023-03-06T12:18:51.861Z,93695.00
2023-03-06T12:19:52.022Z,93697.00
2023-03-06T12:20:51.869Z,93699.00
2023-03-06T12:21:52.407Z,93697.00
2023-03-06T12:22:57.749Z,93697.00
2023-03-06T12:24:52.064Z,93695.00
2023-03-06T12:25:51.961Z,93695.00
2023-03-06T12:26:51.948Z,93695.00
2023-03-06T12:27:51.974Z,93692.00
2023-03-06T12:28:51.950Z,93695.00
2023-03-06T12:29:51.947Z,93697.00
2023-03-06T12:30:52.054Z,93694.00
2023-03-06T12:31:51.902Z,93692.00
2023-03-06T12:32:52.013Z,93692.00
2023-03-06T12:33:51.912Z,93692.00
2023-03-06T12:34:51.928Z,93690.00
2023-03-06T12:36:51.964Z,93684.00
2023-03-06T12:37:51.962Z,93686.00
2023-03-06T12:38:51.977Z,93690.00
2023-03-06T12:39:51.957Z,93688.00
2023-03-06T12:40:51.998Z,93686.00
2023-03-06T12:41:51.994Z,93684.00
2023-03-06T12:42:52.517Z,93688.00
2023-03-06T12:43:52.052Z,93684.00
2023-03-06T12:44:52.025Z,93682.00
2023-03-06T12:45:52.160Z,93676.00
2023-03-06T12:46:52.023Z,93678.00
2023-03-06T12:47:52.053Z,93674.00
2023-03-06T12:48:52.048Z,93674.00
2023-03-06T12:49:52.044Z,93674.00
2023-03-06T12:50:52.052Z,93672.00
2023-03-06T12:51:52.077Z,93674.00
2023-03-06T12:52:52.121Z,93674.00
2023-03-06T12:53:52.057Z,93680.00
2023-03-06T12:54:52.080Z,93674.00
2023-03-06T12:55:52.100Z,93672.00
2023-03-06T12:56:52.062Z,93668.00
2023-03-06T12:57:52.052Z,93668.00
2023-03-06T12:58:52.053Z,93670.00
2023-03-06T12:59:52.163Z,93666.00
2023-03-06T13:00:55.294Z,93668.00
2023-03-06T13:01:53.139Z,93668.00
2023-03-06T13:02:52.118Z,93666.00
2023-03-06T13:03:52.074Z,93668.00
2023-03-06T13:04:52.099Z,93666.00
2023-03-06T13:05:52.181Z,93660.00
2023-03-06T13:06:52.101Z,93660.00
2023-03-06T13:07:52.084Z,93658.00
2023-03-06T13:08:52.116Z,93656.00
2023-03-06T13:09:52.124Z,93652.00
2023-03-06T13:10:52.128Z,93652.00
2023-03-06T13:11:52.094Z,93650.00
2023-03-06T13:12:52.142Z,93648.00
2023-03-06T13:13:52.155Z,93647.00
2023-03-06T13:14:54.675Z,93650.00
2023-03-06T13:15:52.195Z,93650.00
2023-03-06T13:16:52.214Z,93647.00
2023-03-06T13:17:52.179Z,93648.00
2023-03-06T13:18:52.197Z,93654.00
2023-03-06T13:19:52.166Z,93650.00
2023-03-06T13:20:52.179Z,93650.00
2023-03-06T13:21:52.162Z,93647.00
2023-03-06T13:22:52.164Z,93650.00
2023-03-06T13:23:52.169Z,93652.00
2023-03-06T13:24:54.929Z,93648.00
2023-03-06T13:25:52.168Z,93650.00
2023-03-06T13:26:52.141Z,93647.00
2023-03-06T13:27:52.139Z,93645.00
2023-03-06T13:28:52.125Z,93645.00
2023-03-06T13:29:52.082Z,93645.00
2023-03-06T13:30:53.290Z,93641.00
2023-03-06T13:31:52.068Z,93641.00
2023-03-06T13:32:52.074Z,93647.00
2023-03-06T13:33:52.101Z,93645.00
2023-03-06T13:34:52.061Z,93639.00
2023-03-06T13:35:52.107Z,93639.00
2023-03-06T13:36:52.023Z,93643.00
2023-03-06T13:37:52.086Z,93643.00
2023-03-06T13:38:52.043Z,93641.00
2023-03-06T13:39:52.052Z,93639.00
2023-03-06T13:40:52.041Z,93637.00
2023-03-06T13:41:52.002Z,93639.00
2023-03-06T13:42:52.007Z,93639.00
2023-03-06T13:43:52.010Z,93637.00
2023-03-06T13:44:51.969Z,93633.00
2023-03-06T13:45:52.021Z,93625.00
2023-03-06T13:46:51.983Z,93625.00
2023-03-06T13:48:30.272Z,93623.00
2023-03-06T13:48:52.968Z,93625.00
2023-03-06T13:49:51.970Z,93625.00
2023-03-06T13:50:51.962Z,93619.00
2023-03-06T13:51:51.965Z,93623.00
2023-03-06T13:52:53.690Z,93623.00
2023-03-06T13:53:51.960Z,93635.00
2023-03-06T13:54:51.923Z,93633.00
2023-03-06T13:55:51.938Z,93625.00
2023-03-06T13:56:51.888Z,93639.00
2023-03-06T13:57:51.921Z,93633.00
2023-03-06T13:58:51.897Z,93637.00
2023-03-06T13:59:57.005Z,93635.00
2023-03-06T14:00:52.871Z,93633.00
2023-03-06T14:01:51.974Z,93633.00
2023-03-06T14:02:51.911Z,93635.00
2023-03-06T14:03:51.852Z,93635.00
2023-03-06T14:04:51.880Z,93637.00
2023-03-06T14:05:51.840Z,93635.00
2023-03-06T14:06:51.833Z,93639.00
2023-03-06T14:07:51.849Z,93641.00
2023-03-06T14:08:51.819Z,93639.00
2023-03-06T14:09:51.816Z,93647.00
2023-03-06T14:10:51.815Z,93641.00
2023-03-06T14:11:51.803Z,93643.00
2023-03-06T14:12:51.815Z,93645.00
2023-03-06T14:13:51.847Z,93645.00
2023-03-06T14:14:51.885Z,93641.00
2023-03-06T14:15:51.986Z,93641.00
2023-03-06T14:16:52.042Z,93643.00
2023-03-06T14:17:52.048Z,93647.00
2023-03-06T14:18:52.099Z,93643.00
2023-03-06T14:19:52.132Z,93641.00
2023-03-06T14:20:52.185Z,93647.00
2023-03-06T14:21:52.259Z,93645.00
2023-03-06T14:22:52.248Z,93645.00
2023-03-06T14:23:52.231Z,93639.00
2023-03-06T14:24:52.229Z,93647.00
2023-03-06T14:25:52.233Z,93641.00
2023-03-06T14:26:52.238Z,93643.00
2023-03-06T14:27:53.560Z,93643.00
2023-03-06T14:28:52.392Z,93647.00
2023-03-06T14:29:52.389Z,93650.00
2023-03-06T14:30:52.442Z,93647.00
2023-03-06T14:31:52.374Z,93652.00
2023-03-06T14:32:52.352Z,93654.00
2023-03-06T14:33:52.360Z,93650.00
2023-03-06T14:34:52.378Z,93654.00
2023-03-06T14:35:53.245Z,93654.00
2023-03-06T14:36:52.364Z,93652.00
2023-03-06T14:37:52.364Z,93658.00
2023-03-06T14:38:52.371Z,93654.00
2023-03-06T14:39:52.357Z,93652.00
2023-03-06T14:40:52.384Z,93656.00
2023-03-06T14:41:52.379Z,93658.00
2023-03-06T14:42:52.394Z,93664.00
2023-03-06T14:43:52.415Z,93666.00
2023-03-06T14:44:52.402Z,93662.00
2023-03-06T14:45:52.385Z,93670.00
2023-03-06T14:46:52.446Z,93668.00
2023-03-06T14:47:52.419Z,93666.00
2023-03-06T14:48:52.415Z,93662.00
2023-03-06T14:49:52.399Z,93670.00
2023-03-06T14:50:52.455Z,93664.00
2023-03-06T14:51:52.416Z,93670.00
2023-03-06T14:52:52.423Z,93664.00
2023-03-06T14:53:52.382Z,93666.00
2023-03-06T14:54:52.411Z,93666.00
2023-03-06T14:55:52.440Z,93670.00
2023-03-06T14:56:52.431Z,93670.00
2023-03-06T14:57:52.448Z,93668.00
2023-03-06T14:58:52.458Z,93670.00
2023-03-06T14:59:52.450Z,93670.00
2023-03-06T15:00:52.454Z,93662.00
2023-03-06T15:01:52.461Z,93662.00
2023-03-06T15:02:52.493Z,93664.00
2023-03-06T15:03:52.429Z,93668.00
2023-03-06T15:04:52.464Z,93670.00
2023-03-06T15:05:52.464Z,93670.00
2023-03-06T15:06:52.466Z,93666.00
2023-03-06T15:07:52.456Z,93670.00
2023-03-06T15:08:52.461Z,93672.00
2023-03-06T15:09:52.440Z,93672.00
2023-03-06T15:10:52.469Z,93676.00
2023-03-06T15:11:52.500Z,93672.00
2023-03-06T15:12:52.504Z,93674.00
2023-03-06T15:13:52.519Z,93664.00
2023-03-06T15:14:52.562Z,93670.00
2023-03-06T15:15:52.630Z,93668.00
2023-03-06T15:16:52.626Z,93672.00
2023-03-06T15:17:52.692Z,93674.00
2023-03-06T15:18:52.742Z,93674.00
2023-03-06T15:19:52.817Z,93670.00
2023-03-06T15:20:52.839Z,93672.00
2023-03-06T15:21:52.861Z,93674.00
2023-03-06T15:22:52.932Z,93676.00
2023-03-06T15:23:52.936Z,93680.00
2023-03-06T15:24:52.987Z,93680.00
2023-03-06T15:25:52.943Z,93680.00
2023-03-06T15:26:52.967Z,93682.00
2023-03-06T15:27:52.977Z,93678.00
2023-03-06T15:28:59.830Z,93684.00
2023-03-06T15:29:53.970Z,93695.00
2023-03-06T15:30:53.014Z,93688.00
2023-03-06T15:31:53.049Z,93688.00
2023-03-06T15:32:52.958Z,93694.00
2023-03-06T15:33:52.949Z,93694.00
2023-03-06T15:34:53.007Z,93695.00
2023-03-06T15:35:53.027Z,93694.00
2023-03-06T15:36:52.879Z,93690.00
2023-03-06T15:37:52.883Z,93692.00
2023-03-06T15:38:52.881Z,93694.00
2023-03-06T15:39:52.888Z,93690.00
2023-03-06T15:40:52.909Z,93694.00
2023-03-06T15:41:52.965Z,93697.00
2023-03-06T15:42:52.965Z,93694.00
2023-03-06T15:43:52.988Z,93695.00
2023-03-06T15:44:53.150Z,93695.00
2023-03-06T15:45:53.164Z,93690.00
2023-03-06T15:46:59.268Z,93692.00
2023-03-06T15:47:54.179Z,93692.00
2023-03-06T15:48:53.151Z,93690.00
2023-03-06T15:49:53.357Z,93695.00
2023-03-06T15:50:53.205Z,93688.00
2023-03-06T15:51:53.141Z,93692.00
2023-03-06T15:52:53.151Z,93694.00
2023-03-06T15:53:55.094Z,93697.00
2023-03-06T15:54:54.127Z,93701.00
2023-03-06T15:55:53.113Z,93697.00
2023-03-06T15:56:53.092Z,93701.00
2023-03-06T15:57:53.095Z,93701.00
2023-03-06T15:58:53.165Z,93701.00
2023-03-06T15:59:53.104Z,93703.00
2023-03-06T16:00:53.124Z,93705.00
2023-03-06T16:01:53.072Z,93707.00
2023-03-06T16:02:53.064Z,93705.00
2023-03-06T16:03:53.099Z,93699.00
2023-03-06T16:04:53.209Z,93699.00
2023-03-06T16:05:53.213Z,93697.00
2023-03-06T16:06:53.244Z,93699.00
2023-03-06T16:07:53.286Z,93697.00
2023-03-06T16:08:53.396Z,93701.00
2023-03-06T16:09:53.423Z,93703.00
2023-03-06T16:10:53.480Z,93703.00
2023-03-06T16:11:53.526Z,93703.00
2023-03-06T16:12:53.534Z,93705.00
2023-03-06T16:13:53.553Z,93703.00
2023-03-06T16:14:53.587Z,93707.00
2023-03-06T16:15:53.583Z,93707.00
2023-03-06T16:16:53.664Z,93707.00
2023-03-06T16:17:53.620Z,93709.00
2023-03-06T16:18:53.630Z,93707.00
2023-03-06T16:19:53.657Z,93711.00
2023-03-06T16:20:53.637Z,93709.00
2023-03-06T16:21:53.664Z,93711.00
2023-03-06T16:22:53.687Z,93711.00
2023-03-06T16:23:53.681Z,93709.00
2023-03-06T16:24:53.710Z,93707.00
2023-03-06T16:25:53.711Z,93715.00
2023-03-06T16:26:53.729Z,93713.00
2023-03-06T16:27:53.775Z,93717.00
2023-03-06T16:28:53.792Z,93717.00
2023-03-06T16:29:53.775Z,93715.00
2023-03-06T16:30:53.868Z,93721.00
2023-03-06T16:31:53.894Z,93721.00
2023-03-06T16:32:53.991Z,93719.00
2023-03-06T16:33:54.028Z,93725.00
2023-03-06T16:34:54.078Z,93725.00
2023-03-06T16:35:54.179Z,93723.00
2023-03-06T16:36:54.224Z,93731.00
2023-03-06T16:37:54.277Z,93727.00
2023-03-06T16:38:54.357Z,93727.00
2023-03-06T16:39:54.412Z,93727.00
2023-03-06T16:40:54.467Z,93725.00
2023-03-06T16:41:54.522Z,93723.00
2023-03-06T16:42:55.275Z,93727.00
2023-03-06T16:43:54.658Z,93727.00
2023-03-06T16:44:54.724Z,93729.00
2023-03-06T16:45:54.950Z,93731.00
2023-03-06T16:46:54.838Z,93733.00
2023-03-06T16:47:54.908Z,93729.00
2023-03-06T16:48:54.996Z,93737.00
2023-03-06T16:49:55.078Z,93735.00
2023-03-06T16:50:55.117Z,93742.00
2023-03-06T16:51:55.197Z,93742.00
2023-03-06T16:52:55.208Z,93741.00
2023-03-06T16:53:55.299Z,93742.00
2023-03-06T16:54:55.370Z,93742.00
2023-03-06T16:55:55.424Z,93741.00
2023-03-06T16:56:55.475Z,93744.00
2023-03-06T16:57:55.553Z,93742.00
2023-03-06T16:58:55.543Z,93744.00
2023-03-06T16:59:55.611Z,93748.00
2023-03-06T17:00:55.689Z,93750.00
2023-03-06T17:01:55.766Z,93752.00
2023-03-06T17:02:55.813Z,93748.00
2023-03-06T17:03:55.897Z,93750.00
2023-03-06T17:04:55.937Z,93750.00
2023-03-06T17:05:56.018Z,93748.00
2023-03-06T17:06:56.096Z,93750.00
2023-03-06T17:07:56.113Z,93752.00
2023-03-06T17:08:56.181Z,93754.00
2023-03-06T17:09:56.237Z,93758.00
2023-03-06T17:10:56.285Z,93760.00
2023-03-06T17:11:56.349Z,93758.00
2023-03-06T17:12:56.402Z,93762.00
2023-03-06T17:13:56.429Z,93762.00
2023-03-06T17:14:56.509Z,93762.00
2023-03-06T17:15:56.657Z,93768.00
2023-03-06T17:16:57.250Z,93766.00
2023-03-06T17:17:56.633Z,93766.00
2023-03-06T17:18:56.646Z,93764.00
2023-03-06T17:19:56.748Z,93770.00
2023-03-06T17:20:56.774Z,93772.00
2023-03-06T17:21:56.826Z,93772.00
2023-03-06T17:22:56.855Z,93774.00
2023-03-06T17:23:56.941Z,93774.00
2023-03-06T17:24:56.995Z,93776.00
2023-03-06T17:25:56.977Z,93772.00
2023-03-06T17:26:57.015Z,93774.00
2023-03-06T17:27:57.041Z,93780.00
2023-03-06T17:28:57.087Z,93780.00
2023-03-06T17:29:57.090Z,93784.00
2023-03-06T17:30:57.180Z,93786.00
2023-03-06T17:31:57.140Z,93786.00
2023-03-06T17:32:57.143Z,93788.00
2023-03-06T17:33:57.152Z,93784.00
2023-03-06T17:34:57.175Z,93786.00
2023-03-06T17:35:57.207Z,93786.00
2023-03-06T17:36:57.203Z,93791.00
2023-03-06T17:37:57.201Z,93789.00
2023-03-06T17:38:57.215Z,93791.00
2023-03-06T17:39:57.236Z,93791.00
2023-03-06T17:40:57.263Z,93793.00
2023-03-06T17:41:57.264Z,93795.00
2023-03-06T17:42:57.276Z,93793.00
2023-03-06T17:43:57.267Z,93795.00
2023-03-06T17:44:57.282Z,93797.00
2023-03-06T17:45:57.300Z,93801.00
2023-03-06T17:46:57.341Z,93801.00
2023-03-06T17:47:57.357Z,93801.00
2023-03-06T17:48:57.359Z,93803.00
2023-03-06T17:49:57.380Z,93809.00
2023-03-06T17:50:57.399Z,93805.00
2023-03-06T17:51:57.419Z,93809.00
2023-03-06T17:52:57.437Z,93807.00
2023-03-06T17:53:57.452Z,93809.00
2023-03-06T17:54:57.475Z,93809.00
2023-03-06T17:55:57.490Z,93807.00
2023-03-06T17:56:57.473Z,93811.00
2023-03-06T17:57:57.480Z,93811.00
2023-03-06T17:58:57.507Z,93811.00
2023-03-06T17:59:57.476Z,93811.00
2023-03-06T18:00:57.475Z,93811.00
2023-03-06T18:01:57.496Z,93811.00
2023-03-06T18:02:57.454Z,93813.00
2023-03-06T18:03:57.480Z,93815.00
2023-03-06T18:04:57.534Z,93815.00
2023-03-06T18:05:57.472Z,93815.00
2023-03-06T18:06:57.514Z,93817.00
2023-03-06T18:07:57.577Z,93817.00
2023-03-06T18:08:57.558Z,93819.00
2023-03-06T18:09:57.567Z,93821.00
2023-03-06T18:10:57.571Z,93821.00
2023-03-06T18:11:57.594Z,93823.00
2023-03-06T18:13:57.590Z,93823.00
2023-03-06T18:14:57.616Z,93825.00
2023-03-06T18:15:57.640Z,93825.00
2023-03-06T18:16:57.602Z,93829.00
2023-03-06T18:17:57.625Z,93829.00
2023-03-06T18:19:57.699Z,93831.00
2023-03-06T18:20:57.685Z,93829.00
2023-03-06T18:21:57.685Z,93829.00
2023-03-06T18:22:57.670Z,93829.00
2023-03-06T18:23:57.713Z,93831.00
2023-03-06T18:24:57.707Z,93829.00
2023-03-06T18:25:57.750Z,93827.00
2023-03-06T18:26:57.796Z,93827.00
2023-03-06T18:27:57.767Z,93829.00
2023-03-06T18:28:57.799Z,93831.00
2023-03-06T18:29:57.834Z,93831.00
2023-03-06T18:30:57.823Z,93831.00
2023-03-06T18:31:57.847Z,93829.00
2023-03-06T18:32:57.884Z,93829.00
2023-03-06T18:33:57.937Z,93827.00
2023-03-06T18:34:57.880Z,93827.00
2023-03-06T18:35:57.918Z,93831.00
2023-03-06T18:36:57.906Z,93833.00
2023-03-06T18:37:57.966Z,93835.00
2023-03-06T18:38:57.933Z,93838.00
2023-03-06T18:39:58.061Z,93838.00
2023-03-06T18:40:57.938Z,93840.00
2023-03-06T18:41:57.948Z,93840.00
2023-03-06T18:42:57.978Z,93840.00
2023-03-06T18:43:58.007Z,93840.00
2023-03-06T18:44:58.012Z,93842.00
2023-03-06T18:45:58.098Z,93842.00
2023-03-06T18:46:58.063Z,93846.00
2023-03-06T18:48:58.105Z,93842.00
2023-03-06T18:49:58.124Z,93844.00
2023-03-06T18:50:58.154Z,93844.00
2023-03-06T18:51:58.125Z,93842.00
2023-03-06T18:52:58.088Z,93846.00
2023-03-06T18:53:58.182Z,93846.00
2023-03-06T18:55:58.119Z,93846.00
2023-03-06T18:56:58.089Z,93842.00
2023-03-06T18:57:58.091Z,93844.00
2023-03-06T18:58:58.087Z,93848.00
2023-03-06T18:59:58.076Z,93850.00
2023-03-06T19:00:59.475Z,93852.00
2023-03-06T19:01:58.075Z,93852.00
2023-03-06T19:03:58.177Z,93852.00
2023-03-06T19:04:58.150Z,93854.00
2023-03-06T19:05:58.124Z,93856.00
2023-03-06T19:06:58.130Z,93858.00
2023-03-06T19:07:58.174Z,93858.00
2023-03-06T19:08:58.236Z,93862.00
2023-03-06T19:09:58.224Z,93862.00
2023-03-06T19:10:58.244Z,93864.00
2023-03-06T19:11:58.244Z,93864.00
2023-03-06T19:12:58.212Z,93866.00
2023-03-06T19:13:58.235Z,93868.00
2023-03-06T19:14:58.250Z,93868.00
2023-03-06T19:15:58.256Z,93870.00
2023-03-06T19:16:58.219Z,93874.00